sensor_id;sensor_type;location;lat;lon;timestamp;temperature;humidity
22299;DHT22;11317;51.072;17.036;2023-02-14T00:09:16;6.40;1.00
22299;DHT22;11317;51.072;17.036;2023-02-14T00:11:43;6.50;99.90
22299;DHT22;11317;51.072;17.036;2023-02-14T00:14:09;5.30;24.70
22299;DHT22;11317;51.072;17.036;2023-02-14T00:19:22;6.90;1.00
22299;DHT22;11317;51.072;17.036;2023-02-14T00:21:48;6.30;1.00
22299;DHT22;11317;51.072;17.036;2023-02-14T00:24:20;6.40;99.90
22299;DHT22;11317;51.072;17.036;2023-02-14T00:29:16;6.70;1.00
22299;DHT22;11317;51.072;17.036;2023-02-14T00:39:06;6.30;1.00
22299;DHT22;11317;51.072;17.036;2023-02-14T00:43:58;6.30;49.80
22299;DHT22;11317;51.072;17.036;2023-02-14T00:46:25;6.40;99.90
22299;DHT22;11317;51.072;17.036;2023-02-14T00:51:18;6.60;1.00
22299;DHT22;11317;51.072;17.036;2023-02-14T00:53:45;6.30;1.00
22299;DHT22;11317;51.072;17.036;2023-02-14T00:56:12;6.30;1.00
22299;DHT22;11317;51.072;17.036;2023-02-14T01:01:05;6.00;99.90
22299;DHT22;11317;51.072;17.036;2023-02-14T01:15:47;6.20;1.00
22299;DHT22;11317;51.072;17.036;2023-02-14T01:18:14;6.20;1.00
22299;DHT22;11317;51.072;17.036;2023-02-14T01:25:35;6.20;1.00
22299;DHT22;11317;51.072;17.036;2023-02-14T01:32:53;6.20;1.00
22299;DHT22;11317;51.072;17.036;2023-02-14T01:40:12;6.10;21.90
22299;DHT22;11317;51.072;17.036;2023-02-14T01:47:39;6.10;99.90
22299;DHT22;11317;51.072;17.036;2023-02-14T01:50:13;6.10;99.90
22299;DHT22;11317;51.072;17.036;2023-02-14T01:52:46;6.20;1.00
22299;DHT22;11317;51.072;17.036;2023-02-14T01:55:21;6.00;1.00
22299;DHT22;11317;51.072;17.036;2023-02-14T01:57:58;6.10;1.00
22299;DHT22;11317;51.072;17.036;2023-02-14T02:00:24;6.10;1.00
22299;DHT22;11317;51.072;17.036;2023-02-14T02:03:10;6.20;1.00
22299;DHT22;11317;51.072;17.036;2023-02-14T02:05:40;6.10;1.00
22299;DHT22;11317;51.072;17.036;2023-02-14T02:10:33;6.10;1.00
22299;DHT22;11317;51.072;17.036;2023-02-14T02:13:04;6.00;5.80
22299;DHT22;11317;51.072;17.036;2023-02-14T02:18:42;6.00;1.00
22299;DHT22;11317;51.072;17.036;2023-02-14T02:24:10;6.00;1.00
22299;DHT22;11317;51.072;17.036;2023-02-14T02:43:01;6.10;1.00
22299;DHT22;11317;51.072;17.036;2023-02-14T02:45:46;5.80;99.90
22299;DHT22;11317;51.072;17.036;2023-02-14T02:48:41;6.00;1.00
22299;DHT22;11317;51.072;17.036;2023-02-14T02:51:15;5.90;1.00
22299;DHT22;11317;51.072;17.036;2023-02-14T02:54:12;5.70;1.00
22299;DHT22;11317;51.072;17.036;2023-02-14T02:56:48;5.90;99.90
22299;DHT22;11317;51.072;17.036;2023-02-14T02:59:24;6.00;99.90
22299;DHT22;11317;51.072;17.036;2023-02-14T03:04:36;5.90;1.00
22299;DHT22;11317;51.072;17.036;2023-02-14T03:07:38;5.80;99.90
22299;DHT22;11317;51.072;17.036;2023-02-14T03:10:17;5.80;99.90
22299;DHT22;11317;51.072;17.036;2023-02-14T03:16:04;6.00;99.90
22299;DHT22;11317;51.072;17.036;2023-02-14T03:22:09;6.00;99.90
22299;DHT22;11317;51.072;17.036;2023-02-14T03:32:31;5.70;1.00
22299;DHT22;11317;51.072;17.036;2023-02-14T03:35:25;5.80;1.00
22299;DHT22;11317;51.072;17.036;2023-02-14T03:38:03;5.70;1.00
22299;DHT22;11317;51.072;17.036;2023-02-14T03:40:48;5.70;99.90
22299;DHT22;11317;51.072;17.036;2023-02-14T03:43:29;5.80;99.90
22299;DHT22;11317;51.072;17.036;2023-02-14T03:49:08;5.70;1.00
22299;DHT22;11317;51.072;17.036;2023-02-14T03:51:36;5.80;1.00
22299;DHT22;11317;51.072;17.036;2023-02-14T03:54:06;5.80;99.90
22299;DHT22;11317;51.072;17.036;2023-02-14T03:56:37;5.80;99.90
22299;DHT22;11317;51.072;17.036;2023-02-14T03:59:18;5.80;99.90
22299;DHT22;11317;51.072;17.036;2023-02-14T04:01:58;6.00;1.00
22299;DHT22;11317;51.072;17.036;2023-02-14T04:04:29;5.80;1.00
22299;DHT22;11317;51.072;17.036;2023-02-14T04:14:16;5.70;36.50
22299;DHT22;11317;51.072;17.036;2023-02-14T04:29:43;5.70;99.90
22299;DHT22;11317;51.072;17.036;2023-02-14T04:32:20;4.80;99.90
22299;DHT22;11317;51.072;17.036;2023-02-14T04:34:47;6.80;99.90
22299;DHT22;11317;51.072;17.036;2023-02-14T04:37:14;5.60;99.90
22299;DHT22;11317;51.072;17.036;2023-02-14T04:42:06;5.60;99.90
22299;DHT22;11317;51.072;17.036;2023-02-14T04:47:00;5.60;1.00
22299;DHT22;11317;51.072;17.036;2023-02-14T04:49:26;5.60;1.00
22299;DHT22;11317;51.072;17.036;2023-02-14T04:59:11;5.70;1.00
22299;DHT22;11317;51.072;17.036;2023-02-14T05:04:03;5.40;1.00
22299;DHT22;11317;51.072;17.036;2023-02-14T05:08:55;5.60;1.00
22299;DHT22;11317;51.072;17.036;2023-02-14T05:11:22;5.50;1.00
22299;DHT22;11317;51.072;17.036;2023-02-14T05:38:10;5.60;1.00
22299;DHT22;11317;51.072;17.036;2023-02-14T05:40:37;5.10;90.30
22299;DHT22;11317;51.072;17.036;2023-02-14T05:43:03;5.30;99.90
22299;DHT22;11317;51.072;17.036;2023-02-14T06:00:07;5.20;1.00
22299;DHT22;11317;51.072;17.036;2023-02-14T06:46:24;5.40;99.90
22299;DHT22;11317;51.072;17.036;2023-02-14T06:48:50;5.50;99.90
22299;DHT22;11317;51.072;17.036;2023-02-14T07:25:25;5.40;1.00
22299;DHT22;11317;51.072;17.036;2023-02-14T07:30:19;5.70;99.90
22299;DHT22;11317;51.072;17.036;2023-02-14T07:32:45;5.50;1.00
22299;DHT22;11317;51.072;17.036;2023-02-14T07:37:37;5.70;99.90
22299;DHT22;11317;51.072;17.036;2023-02-14T07:40:04;5.70;1.00
22299;DHT22;11317;51.072;17.036;2023-02-14T08:06:53;5.80;11.80
22299;DHT22;11317;51.072;17.036;2023-02-14T08:11:56;5.10;1.00
22299;DHT22;11317;51.072;17.036;2023-02-14T10:06:59;6.80;1.00
22299;DHT22;11317;51.072;17.036;2023-02-14T10:12:26;7.50;1.00
22299;DHT22;11317;51.072;17.036;2023-02-14T10:14:57;6.90;1.00
22299;DHT22;11317;51.072;17.036;2023-02-14T10:20:00;7.00;1.00
22299;DHT22;11317;51.072;17.036;2023-02-14T10:22:44;6.90;1.00
22299;DHT22;11317;51.072;17.036;2023-02-14T10:25:38;7.00;1.00
22299;DHT22;11317;51.072;17.036;2023-02-14T10:28:00;7.10;1.00
22299;DHT22;11317;51.072;17.036;2023-02-14T10:30:35;7.00;1.00
22299;DHT22;11317;51.072;17.036;2023-02-14T10:33:16;7.20;1.00
22299;DHT22;11317;51.072;17.036;2023-02-14T10:35:46;7.20;1.00
22299;DHT22;11317;51.072;17.036;2023-02-14T10:47:23;7.20;99.90
22299;DHT22;11317;51.072;17.036;2023-02-14T10:52:42;7.20;1.00
22299;DHT22;11317;51.072;17.036;2023-02-14T10:58:03;7.20;99.90
22299;DHT22;11317;51.072;17.036;2023-02-14T11:00:37;7.10;99.90
22299;DHT22;11317;51.072;17.036;2023-02-14T11:03:07;7.10;99.90
22299;DHT22;11317;51.072;17.036;2023-02-14T11:05:47;7.30;99.90
22299;DHT22;11317;51.072;17.036;2023-02-14T11:08:28;7.00;1.00
22299;DHT22;11317;51.072;17.036;2023-02-14T11:13:36;7.20;99.90
22299;DHT22;11317;51.072;17.036;2023-02-14T11:16:08;7.30;99.90
22299;DHT22;11317;51.072;17.036;2023-02-14T11:18:36;7.10;99.90
22299;DHT22;11317;51.072;17.036;2023-02-14T11:21:15;7.10;99.90
22299;DHT22;11317;51.072;17.036;2023-02-14T11:23:50;7.40;1.00
22299;DHT22;11317;51.072;17.036;2023-02-14T11:26:39;7.50;1.00
22299;DHT22;11317;51.072;17.036;2023-02-14T11:32:32;7.70;1.00
22299;DHT22;11317;51.072;17.036;2023-02-14T11:35:07;7.80;1.00
22299;DHT22;11317;51.072;17.036;2023-02-14T11:37:50;7.70;98.30
22299;DHT22;11317;51.072;17.036;2023-02-14T11:40:37;8.10;1.00
22299;DHT22;11317;51.072;17.036;2023-02-14T11:45:38;8.20;99.90
22299;DHT22;11317;51.072;17.036;2023-02-14T11:48:24;7.80;99.90
22299;DHT22;11317;51.072;17.036;2023-02-14T11:51:12;7.90;11.00
22299;DHT22;11317;51.072;17.036;2023-02-14T11:53:48;7.80;99.90
22299;DHT22;11317;51.072;17.036;2023-02-14T11:56:16;7.80;99.90
22299;DHT22;11317;51.072;17.036;2023-02-14T11:58:55;7.90;99.90
22299;DHT22;11317;51.072;17.036;2023-02-14T12:03:49;7.80;99.90
22299;DHT22;11317;51.072;17.036;2023-02-14T12:06:29;7.40;99.90
22299;DHT22;11317;51.072;17.036;2023-02-14T12:14:22;7.70;83.00
22299;DHT22;11317;51.072;17.036;2023-02-14T12:16:57;7.90;1.00
22299;DHT22;11317;51.072;17.036;2023-02-14T12:19:54;7.80;47.50
22299;DHT22;11317;51.072;17.036;2023-02-14T12:22:31;7.50;1.00
22299;DHT22;11317;51.072;17.036;2023-02-14T12:25:08;7.60;6.10
22299;DHT22;11317;51.072;17.036;2023-02-14T12:27:46;7.30;99.90
22299;DHT22;11317;51.072;17.036;2023-02-14T12:30:21;7.60;25.00
22299;DHT22;11317;51.072;17.036;2023-02-14T12:32:50;7.60;1.00
22299;DHT22;11317;51.072;17.036;2023-02-14T12:35:26;7.50;99.90
22299;DHT22;11317;51.072;17.036;2023-02-14T12:46:15;7.50;1.00
22299;DHT22;11317;51.072;17.036;2023-02-14T12:52:05;7.70;1.00
22299;DHT22;11317;51.072;17.036;2023-02-14T12:54:50;7.40;10.10
22299;DHT22;11317;51.072;17.036;2023-02-14T13:08:49;7.60;1.00
22299;DHT22;11317;51.072;17.036;2023-02-14T13:17:19;7.30;1.00
22299;DHT22;11317;51.072;17.036;2023-02-14T13:22:28;7.70;1.00
22299;DHT22;11317;51.072;17.036;2023-02-14T13:25:04;7.60;1.00
22299;DHT22;11317;51.072;17.036;2023-02-14T13:27:33;7.50;1.00
22299;DHT22;11317;51.072;17.036;2023-02-14T13:30:44;7.40;65.00
22299;DHT22;11317;51.072;17.036;2023-02-14T13:33:20;7.20;99.90
22299;DHT22;11317;51.072;17.036;2023-02-14T13:35:49;7.40;1.00
22299;DHT22;11317;51.072;17.036;2023-02-14T13:38:17;7.40;1.00
22299;DHT22;11317;51.072;17.036;2023-02-14T13:40:44;7.30;54.30
22299;DHT22;11317;51.072;17.036;2023-02-14T13:43:10;7.50;1.00
22299;DHT22;11317;51.072;17.036;2023-02-14T13:50:54;7.10;99.90
22299;DHT22;11317;51.072;17.036;2023-02-14T13:53:40;7.50;99.90
22299;DHT22;11317;51.072;17.036;2023-02-14T13:59:22;7.10;1.00
22299;DHT22;11317;51.072;17.036;2023-02-14T14:01:44;6.90;1.00
22299;DHT22;11317;51.072;17.036;2023-02-14T14:17:32;6.90;86.20
22299;DHT22;11317;51.072;17.036;2023-02-14T14:20:00;6.90;99.90
22299;DHT22;11317;51.072;17.036;2023-02-14T14:22:27;6.90;86.90
22299;DHT22;11317;51.072;17.036;2023-02-14T14:25:01;6.90;99.90
22299;DHT22;11317;51.072;17.036;2023-02-14T14:27:34;6.40;99.90
22299;DHT22;11317;51.072;17.036;2023-02-14T14:30:14;6.80;99.90
22299;DHT22;11317;51.072;17.036;2023-02-14T14:32:42;6.80;1.00
22299;DHT22;11317;51.072;17.036;2023-02-14T14:35:22;5.20;99.90
22299;DHT22;11317;51.072;17.036;2023-02-14T14:37:54;6.60;99.90
22299;DHT22;11317;51.072;17.036;2023-02-14T14:40:33;6.80;1.00
22299;DHT22;11317;51.072;17.036;2023-02-14T14:43:33;6.70;1.00
22299;DHT22;11317;51.072;17.036;2023-02-14T14:45:58;6.50;99.90
22299;DHT22;11317;51.072;17.036;2023-02-14T14:48:37;6.60;99.90
22299;DHT22;11317;51.072;17.036;2023-02-14T14:51:07;6.60;70.30
22299;DHT22;11317;51.072;17.036;2023-02-14T14:53:43;6.50;1.00
22299;DHT22;11317;51.072;17.036;2023-02-14T14:58:44;6.60;1.00
22299;DHT22;11317;51.072;17.036;2023-02-14T15:01:12;6.60;99.90
22299;DHT22;11317;51.072;17.036;2023-02-14T15:03:46;6.50;99.90
22299;DHT22;11317;51.072;17.036;2023-02-14T15:06:17;6.50;99.90
22299;DHT22;11317;51.072;17.036;2023-02-14T15:08:44;6.70;30.60
22299;DHT22;11317;51.072;17.036;2023-02-14T15:11:12;6.70;1.00
22299;DHT22;11317;51.072;17.036;2023-02-14T15:14:00;6.60;1.40
22299;DHT22;11317;51.072;17.036;2023-02-14T15:16:44;6.50;99.90
22299;DHT22;11317;51.072;17.036;2023-02-14T15:19:29;6.40;25.00
22299;DHT22;11317;51.072;17.036;2023-02-14T15:22:04;6.50;99.90
22299;DHT22;11317;51.072;17.036;2023-02-14T15:27:00;6.30;1.00
22299;DHT22;11317;51.072;17.036;2023-02-14T15:29:29;5.80;99.90
22299;DHT22;11317;51.072;17.036;2023-02-14T15:31:57;6.20;99.90
22299;DHT22;11317;51.072;17.036;2023-02-14T15:34:30;6.20;99.90
22299;DHT22;11317;51.072;17.036;2023-02-14T15:36:57;6.30;99.90
22299;DHT22;11317;51.072;17.036;2023-02-14T15:39:52;6.20;99.90
22299;DHT22;11317;51.072;17.036;2023-02-14T15:42:31;6.20;99.90
22299;DHT22;11317;51.072;17.036;2023-02-14T15:45:20;6.20;99.90
22299;DHT22;11317;51.072;17.036;2023-02-14T15:48:03;6.20;99.90
22299;DHT22;11317;51.072;17.036;2023-02-14T15:50:34;6.20;99.90
22299;DHT22;11317;51.072;17.036;2023-02-14T15:56:21;5.80;99.90
22299;DHT22;11317;51.072;17.036;2023-02-14T15:59:21;6.10;1.00
22299;DHT22;11317;51.072;17.036;2023-02-14T16:02:19;5.70;1.00
22299;DHT22;11317;51.072;17.036;2023-02-14T16:15:09;5.90;1.00
22299;DHT22;11317;51.072;17.036;2023-02-14T16:17:41;5.90;1.00
22299;DHT22;11317;51.072;17.036;2023-02-14T16:25:14;6.30;1.00
22299;DHT22;11317;51.072;17.036;2023-02-14T16:27:41;5.80;1.00
22299;DHT22;11317;51.072;17.036;2023-02-14T16:30:14;5.80;1.00
22299;DHT22;11317;51.072;17.036;2023-02-14T16:32:41;5.90;1.00
22299;DHT22;11317;51.072;17.036;2023-02-14T16:35:16;5.80;1.00
22299;DHT22;11317;51.072;17.036;2023-02-14T16:37:45;5.80;1.00
22299;DHT22;11317;51.072;17.036;2023-02-14T16:40:13;5.80;99.90
22299;DHT22;11317;51.072;17.036;2023-02-14T16:47:32;6.20;99.90
22299;DHT22;11317;51.072;17.036;2023-02-14T16:52:26;5.90;1.00
22299;DHT22;11317;51.072;17.036;2023-02-14T16:57:25;5.80;1.00
22299;DHT22;11317;51.072;17.036;2023-02-14T17:02:18;5.90;1.00
22299;DHT22;11317;51.072;17.036;2023-02-14T17:04:44;6.50;1.00
22299;DHT22;11317;51.072;17.036;2023-02-14T17:07:11;6.00;1.00
22299;DHT22;11317;51.072;17.036;2023-02-14T17:09:40;5.90;1.00
22299;DHT22;11317;51.072;17.036;2023-02-14T17:12:13;5.90;1.00
22299;DHT22;11317;51.072;17.036;2023-02-14T17:14:43;5.70;1.00
22299;DHT22;11317;51.072;17.036;2023-02-14T17:17:11;5.80;1.10
22299;DHT22;11317;51.072;17.036;2023-02-14T17:22:04;5.60;56.40
22299;DHT22;11317;51.072;17.036;2023-02-14T17:24:30;5.70;99.90
22299;DHT22;11317;51.072;17.036;2023-02-14T17:34:16;5.70;1.00
22299;DHT22;11317;51.072;17.036;2023-02-14T17:46:30;5.80;1.00
22299;DHT22;11317;51.072;17.036;2023-02-14T17:48:57;5.60;1.00
22299;DHT22;11317;51.072;17.036;2023-02-14T17:53:49;5.60;1.00
22299;DHT22;11317;51.072;17.036;2023-02-14T17:56:26;5.60;54.00
22299;DHT22;11317;51.072;17.036;2023-02-14T17:58:52;5.50;99.90
22299;DHT22;11317;51.072;17.036;2023-02-14T18:01:24;5.40;99.90
22299;DHT22;11317;51.072;17.036;2023-02-14T18:03:52;5.40;99.90
22299;DHT22;11317;51.072;17.036;2023-02-14T18:08:46;5.30;1.00
22299;DHT22;11317;51.072;17.036;2023-02-14T18:11:19;5.30;1.00
22299;DHT22;11317;51.072;17.036;2023-02-14T18:16:13;5.20;99.90
22299;DHT22;11317;51.072;17.036;2023-02-14T18:21:08;5.30;99.90
22299;DHT22;11317;51.072;17.036;2023-02-14T18:26:03;5.30;99.90
22299;DHT22;11317;51.072;17.036;2023-02-14T18:28:30;5.00;99.90
22299;DHT22;11317;51.072;17.036;2023-02-14T18:31:02;5.30;99.90
22299;DHT22;11317;51.072;17.036;2023-02-14T18:50:34;5.00;1.00
22299;DHT22;11317;51.072;17.036;2023-02-14T18:53:00;5.10;52.80
22299;DHT22;11317;51.072;17.036;2023-02-14T19:10:05;5.00;1.00
22299;DHT22;11317;51.072;17.036;2023-02-14T19:12:33;4.90;1.00
22299;DHT22;11317;51.072;17.036;2023-02-14T19:29:37;4.70;99.90
22299;DHT22;11317;51.072;17.036;2023-02-14T19:32:03;5.30;1.00
22299;DHT22;11317;51.072;17.036;2023-02-14T19:34:30;4.20;1.00
22299;DHT22;11317;51.072;17.036;2023-02-14T19:36:58;4.80;99.90
22299;DHT22;11317;51.072;17.036;2023-02-14T19:39:26;4.70;1.00
22299;DHT22;11317;51.072;17.036;2023-02-14T19:41:54;4.80;1.00
22299;DHT22;11317;51.072;17.036;2023-02-14T19:49:17;4.70;1.00
22299;DHT22;11317;51.072;17.036;2023-02-14T19:51:44;4.70;1.00
22299;DHT22;11317;51.072;17.036;2023-02-14T19:56:40;4.60;1.00
22299;DHT22;11317;51.072;17.036;2023-02-14T19:59:07;4.50;1.00
22299;DHT22;11317;51.072;17.036;2023-02-14T20:01:36;4.40;1.00
22299;DHT22;11317;51.072;17.036;2023-02-14T20:04:25;2.30;1.00
22299;DHT22;11317;51.072;17.036;2023-02-14T20:06:52;4.40;1.00
22299;DHT22;11317;51.072;17.036;2023-02-14T20:09:19;4.40;5.00
22299;DHT22;11317;51.072;17.036;2023-02-14T20:11:51;4.40;99.90
22299;DHT22;11317;51.072;17.036;2023-02-14T20:14:29;4.40;1.00
22299;DHT22;11317;51.072;17.036;2023-02-14T20:16:57;4.30;1.00
22299;DHT22;11317;51.072;17.036;2023-02-14T20:19:26;4.30;1.00
22299;DHT22;11317;51.072;17.036;2023-02-14T20:24:23;4.00;99.90
22299;DHT22;11317;51.072;17.036;2023-02-14T20:26:50;4.10;1.00
22299;DHT22;11317;51.072;17.036;2023-02-14T20:29:17;4.00;1.00
22299;DHT22;11317;51.072;17.036;2023-02-14T20:31:49;4.00;1.00
22299;DHT22;11317;51.072;17.036;2023-02-14T20:34:16;3.90;72.60
22299;DHT22;11317;51.072;17.036;2023-02-14T20:36:43;4.40;1.00
22299;DHT22;11317;51.072;17.036;2023-02-14T20:39:11;3.90;1.00
22299;DHT22;11317;51.072;17.036;2023-02-14T20:44:09;3.80;1.00
22299;DHT22;11317;51.072;17.036;2023-02-14T20:58:50;3.50;1.00
22299;DHT22;11317;51.072;17.036;2023-02-14T21:03:44;3.60;99.90
22299;DHT22;11317;51.072;17.036;2023-02-14T21:06:13;3.60;1.00
22299;DHT22;11317;51.072;17.036;2023-02-14T21:08:40;3.60;99.90
22299;DHT22;11317;51.072;17.036;2023-02-14T21:11:08;3.60;99.90
22299;DHT22;11317;51.072;17.036;2023-02-14T21:13:34;3.50;99.90
22299;DHT22;11317;51.072;17.036;2023-02-14T21:16:04;3.30;1.00
22299;DHT22;11317;51.072;17.036;2023-02-14T21:18:31;3.40;99.90
22299;DHT22;11317;51.072;17.036;2023-02-14T21:23:33;3.40;1.00
22299;DHT22;11317;51.072;17.036;2023-02-14T21:28:28;3.10;99.90
22299;DHT22;11317;51.072;17.036;2023-02-14T21:31:08;3.30;99.90
22299;DHT22;11317;51.072;17.036;2023-02-14T21:33:35;3.20;99.90
22299;DHT22;11317;51.072;17.036;2023-02-14T21:36:28;2.70;1.00
22299;DHT22;11317;51.072;17.036;2023-02-14T21:38:56;3.10;99.90
22299;DHT22;11317;51.072;17.036;2023-02-14T21:41:24;3.40;99.90
22299;DHT22;11317;51.072;17.036;2023-02-14T21:43:52;4.30;99.90
22299;DHT22;11317;51.072;17.036;2023-02-14T21:46:20;2.70;99.90
22299;DHT22;11317;51.072;17.036;2023-02-14T21:54:04;3.00;99.90
22299;DHT22;11317;51.072;17.036;2023-02-14T21:56:30;2.80;1.00
22299;DHT22;11317;51.072;17.036;2023-02-14T21:58:57;2.60;1.00
22299;DHT22;11317;51.072;17.036;2023-02-14T22:01:30;2.60;1.00
22299;DHT22;11317;51.072;17.036;2023-02-14T22:03:56;2.70;1.00
22299;DHT22;11317;51.072;17.036;2023-02-14T22:06:24;2.70;1.00
22299;DHT22;11317;51.072;17.036;2023-02-14T22:08:55;2.90;1.00
22299;DHT22;11317;51.072;17.036;2023-02-14T22:11:22;2.70;1.00
22299;DHT22;11317;51.072;17.036;2023-02-14T22:13:48;2.50;1.00
22299;DHT22;11317;51.072;17.036;2023-02-14T22:16:16;2.40;1.00
22299;DHT22;11317;51.072;17.036;2023-02-14T22:18:43;2.50;1.00
22299;DHT22;11317;51.072;17.036;2023-02-14T22:21:12;2.40;1.00
22299;DHT22;11317;51.072;17.036;2023-02-14T22:23:41;2.40;1.00
22299;DHT22;11317;51.072;17.036;2023-02-14T22:26:13;2.30;1.00
22299;DHT22;11317;51.072;17.036;2023-02-14T22:33:33;2.20;1.00
22299;DHT22;11317;51.072;17.036;2023-02-14T22:38:26;2.20;1.00
22299;DHT22;11317;51.072;17.036;2023-02-14T22:40:52;1.40;1.00
22299;DHT22;11317;51.072;17.036;2023-02-14T22:43:18;2.10;1.00
22299;DHT22;11317;51.072;17.036;2023-02-14T22:45:44;2.30;1.00
22299;DHT22;11317;51.072;17.036;2023-02-14T22:48:10;2.70;1.00
22299;DHT22;11317;51.072;17.036;2023-02-14T22:50:36;2.50;1.00
22299;DHT22;11317;51.072;17.036;2023-02-14T22:55:31;1.50;1.00
22299;DHT22;11317;51.072;17.036;2023-02-14T22:57:57;2.10;1.00
22299;DHT22;11317;51.072;17.036;2023-02-14T23:00:23;1.90;1.00
22299;DHT22;11317;51.072;17.036;2023-02-14T23:02:49;2.00;1.00
22299;DHT22;11317;51.072;17.036;2023-02-14T23:05:15;2.00;1.00
22299;DHT22;11317;51.072;17.036;2023-02-14T23:07:41;2.00;1.00
22299;DHT22;11317;51.072;17.036;2023-02-14T23:10:08;2.00;1.00
22299;DHT22;11317;51.072;17.036;2023-02-14T23:12:34;1.90;13.40
22299;DHT22;11317;51.072;17.036;2023-02-14T23:15:18;2.20;3.70
22299;DHT22;11317;51.072;17.036;2023-02-14T23:18:03;1.60;1.00
22299;DHT22;11317;51.072;17.036;2023-02-14T23:23:32;2.10;40.50
22299;DHT22;11317;51.072;17.036;2023-02-14T23:25:59;1.70;39.20
22299;DHT22;11317;51.072;17.036;2023-02-14T23:33:18;2.00;34.60
22299;DHT22;11317;51.072;17.036;2023-02-14T23:43:21;1.80;34.20
22299;DHT22;11317;51.072;17.036;2023-02-14T23:45:47;2.10;37.50
22299;DHT22;11317;51.072;17.036;2023-02-14T23:55:32;2.90;20.20
22299;DHT22;11317;51.072;17.036;2023-02-14T23:57:57;1.10;11.70
